Latest Weather Observations for Luncheon Hill

IDT60801

Issued at 9:01 pm EDT Sunday 7 February 2016 (issued every 30 minutes, with the page automatically refreshed every 10 minutes)

About weather observations | Map of weather stations | Latest weather observations for TAS | Other Formats
Station Details ID: 091259 Name: LUNCHEON HILL (FORESTRY) Lat: -41.15 Lon: 145.15 Height: 344.0 m
Data from the previous 72 hours. | See also: Recent months at Luncheon Hill
Date/Time
EDT
Temp
°C
App
Temp
°C
Dew
Point
Rel
Hum
%
Delta-T
°C
Wind Press
QNH
hPa
Press
MSL
hPa
Rain
since 9 am
mm
Dir
 
Spd
km/h
Gust
km/h
Spd
kts
Gust
kts
07/09:00pm 17.7 16.9 16.0 90 1.0 SW 15 20 8 11 - - 0.0
07/08:30pm 18.6 17.4 16.0 85 1.6 SSW 17 24 9 13 - - 0.0
07/08:00pm 19.5 19.3 15.8 79 2.2 S 11 19 6 10 - - 0.0
07/07:30pm 20.2 20.0 15.6 75 2.8 WSW 11 15 6 8 - - 0.0
07/07:00pm 21.5 19.8 14.6 65 4.1 NW 17 26 9 14 - - 0.0
07/06:30pm 22.2 20.0 14.3 61 4.7 NW 19 26 10 14 - - 0.0
07/06:00pm 23.5 21.0 14.2 56 5.6 NNW 20 28 11 15 - - 0.0
07/05:30pm 23.0 20.0 13.8 56 5.4 NNW 22 30 12 16 - - 0.0
07/05:00pm 24.0 22.1 14.1 54 5.9 N 17 24 9 13 - - 0.0
07/04:30pm 24.0 21.5 13.5 52 6.2 NNW 19 30 10 16 - - 0.0
07/04:00pm 24.6 21.1 13.5 50 6.6 NNW 24 39 13 21 - - 0.0
07/03:30pm 26.6 24.2 14.4 47 7.4 NE 20 28 11 15 - - 0.0
07/03:00pm 26.0 23.0 13.8 47 7.3 N 22 30 12 16 - - 0.0
07/02:30pm 25.4 21.9 13.3 47 7.2 NNE 24 33 13 18 - - 0.0
07/02:00pm 25.6 23.2 14.4 50 6.8 N 20 32 11 17 - - 0.0
07/01:30pm 23.9 21.7 13.4 51 6.2 NNE 17 26 9 14 - - 0.0
07/01:00pm 24.4 21.6 13.3 50 6.6 N 20 30 11 16 - - 0.0
07/12:30pm 23.8 20.9 13.9 54 5.9 NNE 22 30 12 16 - - 0.0
07/12:00pm 23.7 21.0 13.6 53 6.0 NNE 20 30 11 16 - - 0.0
07/11:30am 22.8 20.5 14.1 58 5.2 NE 19 26 10 14 - - 0.0
07/11:00am 21.7 18.8 13.9 61 4.6 NE 22 30 12 16 - - 0.0
07/10:30am 22.1 19.7 14.5 62 4.5 NE 20 28 11 15 - - 0.0
07/10:00am 20.1 16.7 13.8 67 3.7 NE 24 33 13 18 - - 0.0
07/09:30am 19.0 15.0 14.1 73 2.9 ENE 28 39 15 21 - - 0.0
07/09:00am 17.3 14.5 14.4 83 1.7 NE 22 28 12 15 - - 0.0
07/08:30am 17.7 15.6 15.1 85 1.5 ENE 20 30 11 16 - - 0.0
07/08:00am 16.9 15.2 14.7 87 1.3 ENE 17 24 9 13 - - 0.0
07/07:30am 16.0 13.8 14.5 91 0.9 ENE 19 24 10 13 - - 0.0
07/07:00am 15.8 14.1 14.7 93 0.6 ENE 17 20 9 11 - - 0.0
07/06:30am 15.6 15.0 14.6 94 0.6 E 11 17 6 9 - - 0.0
07/06:00am 15.4 13.6 14.4 94 0.6 ENE 17 22 9 12 - - 0.0
07/05:30am 15.5 12.8 14.5 94 0.6 ENE 22 32 12 17 - - 0.0
07/05:00am 15.4 11.6 14.6 95 0.5 NE 28 33 15 18 - - 0.0
07/04:30am 15.4 12.3 14.6 95 0.5 ENE 24 28 13 15 - - 0.0
07/04:00am 15.5 12.0 14.5 94 0.6 NE 26 33 14 18 - - 0.0
07/03:30am 16.1 12.6 14.6 91 0.9 NE 26 32 14 17 - - 0.0
07/03:00am 16.1 13.4 14.5 90 0.9 ENE 22 30 12 16 - - 0.0
07/02:30am 16.1 13.9 14.5 90 0.9 ENE 19 26 10 14 - - 0.0
07/02:00am 16.2 14.8 14.4 89 1.0 ENE 15 24 8 13 - - 0.0
07/01:30am 16.1 15.1 14.5 90 0.9 E 13 19 7 10 - - 0.0
07/01:00am 16.3 14.4 14.3 88 1.2 ENE 17 22 9 12 - - 0.0
07/12:30am 16.3 13.9 14.3 88 1.2 ENE 20 24 11 13 - - 0.0
07/12:00am 16.3 13.8 14.1 87 1.3 ENE 20 28 11 15 - - 0.0
 
Date/Time
EDT
Temp
°C
App
Temp
°C
Dew
Point
Rel
Hum
%
Delta-T
°C
Wind Press
QNH
hPa
Press
MSL
hPa
Rain
since 9 am
mm
Dir
 
Spd
km/h
Gust
km/h
Spd
kts
Gust
kts
06/11:30pm 16.2 12.5 14.0 87 1.3 ENE 26 37 14 20 - - 0.0
06/11:00pm 16.0 13.0 13.8 87 1.3 ENE 22 32 12 17 - - 0.0
06/10:30pm 16.1 13.5 13.8 86 1.3 ENE 20 32 11 17 - - 0.0
06/10:00pm 16.3 13.7 13.8 85 1.4 ENE 20 35 11 19 - - 0.0
06/09:30pm 16.6 13.6 13.7 83 1.7 ENE 22 30 12 16 - - 0.0
06/09:00pm 17.0 14.9 13.5 80 2.0 E 17 26 9 14 - - 0.0
06/08:30pm 17.8 14.7 13.3 75 2.6 ENE 22 32 12 17 - - 0.0
06/08:00pm 18.3 15.5 13.2 72 2.9 ENE 20 28 11 15 - - 0.0
06/07:30pm 19.4 16.1 12.9 66 3.7 NE 22 30 12 16 - - 0.0
06/07:00pm 19.6 15.1 12.6 64 4.0 NE 28 37 15 20 - - 0.0
06/06:30pm 21.0 17.6 13.7 63 4.3 NE 24 37 13 20 - - 0.0
06/06:00pm 21.6 17.6 13.0 58 5.0 NE 26 39 14 21 - - 0.0
06/05:30pm 21.9 17.0 12.7 56 5.3 NE 30 37 16 20 - - 0.0
06/05:00pm 22.6 18.4 12.5 53 5.8 NE 26 33 14 18 - - 0.0
06/04:30pm 22.5 17.5 12.2 52 5.9 NE 30 41 16 22 - - 0.0
06/04:00pm 24.3 20.2 12.6 48 6.8 NE 26 39 14 21 - - 0.0
06/03:30pm 23.5 18.4 11.9 48 6.7 NE 30 39 16 21 - - 0.0
06/03:00pm 24.5 20.5 11.8 45 7.3 NE 24 35 13 19 - - 0.0
06/02:30pm 23.9 19.6 11.9 47 6.9 NE 26 37 14 20 - - 0.0
06/02:00pm 23.6 21.1 14.0 55 5.7 ENE 20 39 11 21 - - 0.0
06/01:30pm 21.9 18.9 12.5 55 5.4 ENE 20 35 11 19 - - 0.0
06/01:00pm 20.9 16.5 12.8 60 4.7 ENE 28 39 15 21 - - 0.0
06/12:30pm 19.9 15.8 12.7 63 4.1 ENE 26 39 14 21 - - 0.0
06/12:00pm 19.8 15.4 12.8 64 4.0 ENE 28 39 15 21 - - 0.0
06/11:30am 19.8 16.1 12.8 64 4.0 ENE 24 35 13 19 - - 0.0
06/11:00am 19.5 15.7 12.5 64 4.0 NE 24 33 13 18 - - 0.0
06/10:46am 19.1 14.6 12.6 66 3.7 ENE 28 46 15 25 - - 0.0
06/10:30am 18.8 15.2 13.0 69 3.3 NE 24 32 13 17 - - 0.0
06/10:00am 18.0 13.7 12.2 69 3.3 ENE 26 39 14 21 - - 0.0
06/09:30am 18.1 14.0 12.8 71 3.0 NE 26 35 14 19 - - 0.0
06/09:00am 17.0 13.5 13.5 80 2.0 NE 24 35 13 19 - - 0.0
06/08:30am 16.7 13.8 14.0 84 1.6 NE 22 35 12 19 - - 0.0
06/08:00am 16.2 13.7 14.0 87 1.3 NE 20 28 11 15 - - 0.0
06/07:30am 15.9 12.4 14.6 92 0.8 ENE 26 37 14 20 - - 0.0
06/07:00am 15.7 13.1 14.9 95 0.5 NE 22 33 12 18 - - 0.0
06/06:30am 15.5 12.9 14.9 96 0.4 NE 22 26 12 14 - - 0.0
06/06:00am 15.4 12.4 14.9 97 0.3 NE 24 30 13 16 - - 0.0
06/05:30am 15.4 12.1 14.9 97 0.3 NE 26 32 14 17 - - 0.0
06/05:00am 15.8 13.4 14.5 92 0.8 ENE 20 30 11 16 - - 0.0
06/04:30am 16.0 14.1 14.2 89 1.0 ENE 17 24 9 13 - - 0.0
06/04:00am 16.0 14.8 14.0 88 1.2 E 13 20 7 11 - - 0.0
06/03:30am 16.0 14.4 13.8 87 1.3 ENE 15 20 8 11 - - 0.0
06/03:00am 16.0 14.3 13.5 85 1.4 NE 15 19 8 10 - - 0.0
06/02:30am 16.2 14.1 13.5 84 1.5 ENE 17 20 9 11 - - 0.0
06/02:00am 16.4 14.4 12.8 79 2.0 ENE 15 19 8 10 - - 0.0
06/01:30am 16.4 14.3 12.4 77 2.2 NE 15 19 8 10 - - 0.0
06/01:00am 16.7 14.8 13.0 79 2.1 NE 15 19 8 10 - - 0.0
06/12:30am 17.0 16.2 14.1 83 1.7 NE 11 17 6 9 - - 0.0
06/12:00am 17.1 16.7 14.2 83 1.7 NNE 9 9 5 5 - - 0.0
 
Date/Time
EDT
Temp
°C
App
Temp
°C
Dew
Point
Rel
Hum
%
Delta-T
°C
Wind Press
QNH
hPa
Press
MSL
hPa
Rain
since 9 am
mm
Dir
 
Spd
km/h
Gust
km/h
Spd
kts
Gust
kts
05/11:30pm 17.2 17.5 14.5 84 1.6 NNE 6 7 3 4 - - 0.0
05/11:00pm 17.4 17.8 14.7 84 1.6 NW 6 7 3 4 - - 0.0
05/10:30pm 17.6 17.8 14.1 80 2.0 NW 6 9 3 5 - - 0.0
05/10:00pm 17.8 18.0 14.3 80 2.0 WNW 6 7 3 4 - - 0.0
05/09:30pm 18.0 17.4 14.7 81 1.9 NW 11 13 6 7 - - 0.0
05/09:00pm 18.3 17.1 12.7 70 3.2 NNW 11 13 6 7 - - 0.0
05/08:30pm 18.6 18.2 12.4 67 3.5 W 6 9 3 5 - - 0.0
05/08:00pm 19.2 18.3 12.5 65 3.8 WSW 9 13 5 7 - - 0.0
05/07:30pm 20.6 18.9 12.6 60 4.6 W 13 19 7 10 - - 0.0
05/07:00pm 20.6 17.3 12.8 61 4.5 NW 22 28 12 15 - - 0.0
05/06:30pm 21.3 18.3 12.7 58 5.0 NW 20 26 11 14 - - 0.0
05/06:00pm 23.3 20.9 12.6 51 6.2 N 17 24 9 13 - - 0.0
05/05:30pm 24.3 22.0 11.9 45 7.1 N 15 19 8 10 - - 0.0
05/05:00pm 24.1 22.4 12.4 48 6.8 N 13 22 7 12 - - 0.0
05/04:30pm 23.2 20.4 11.3 47 6.8 N 17 26 9 14 - - 0.0
05/04:00pm 26.5 24.1 12.5 41 8.2 N 17 20 9 11 - - 0.0
05/03:30pm 23.1 20.4 11.8 49 6.5 N 17 28 9 15 - - 0.0
05/03:00pm 22.8 20.2 12.1 51 6.1 NNW 17 24 9 13 - - 0.0
05/02:30pm 25.0 23.9 13.2 48 7.0 NNW 11 24 6 13 - - 0.0
05/02:00pm 22.0 20.7 12.5 54 5.5 N 11 22 6 12 - - 0.0
05/01:30pm 21.5 19.9 12.9 58 5.0 NNW 13 20 7 11 - - 0.0
05/01:00pm 20.4 19.1 13.8 66 3.9 NNW 13 20 7 11 - - 0.0
05/12:30pm 20.2 19.2 13.4 65 3.9 NNE 11 19 6 10 - - 0.0
05/12:00pm 19.8 18.6 14.0 69 3.4 NNW 13 19 7 10 - - 0.0
05/11:30am 19.5 18.4 13.0 66 3.7 NNW 11 20 6 11 - - 0.0
05/11:00am 19.1 18.3 14.1 73 2.9 N 11 17 6 9 - - 0.0
05/10:30am 18.4 16.7 13.7 74 2.7 NNW 15 20 8 11 - - 0.0
05/10:00am 18.0 16.8 13.9 77 2.4 NNW 13 17 7 9 - - 0.0
05/09:30am 19.5 19.3 14.7 74 2.8 N 9 15 5 8 - - 0.0
05/09:00am 17.4 16.9 15.0 86 1.4 NNE 11 15 6 8 - - 0.0
05/08:30am 17.3 16.8 14.8 85 1.5 N 11 17 6 9 - - 0.0
05/08:00am 16.1 15.9 15.6 97 0.3 NE 11 13 6 7 - - 0.0
05/07:30am 14.8 14.1 14.3 97 0.3 ENE 11 13 6 7 - - 0.0
05/07:00am 14.7 13.6 14.2 97 0.3 NE 13 15 7 8 - - 0.0
05/06:30am 14.4 12.4 13.9 97 0.3 NE 17 19 9 10 - - 0.0
05/06:00am 14.4 12.0 13.9 97 0.3 ENE 19 20 10 11 - - 0.0
05/05:30am 14.2 12.1 13.7 97 0.3 ENE 17 20 9 11 - - 0.0
05/05:00am 14.0 12.6 13.4 96 0.3 ENE 13 17 7 9 - - 0.0
05/04:30am 14.2 12.4 13.4 95 0.5 E 15 20 8 11 - - 0.0
05/04:00am 13.9 12.0 13.1 95 0.4 E 15 20 8 11 - - 0.0
05/03:30am 13.8 11.0 12.7 93 0.6 E 19 24 10 13 - - 0.0
05/03:00am 13.6 11.1 12.3 92 0.7 E 17 24 9 13 - - 0.0
05/02:30am 13.5 10.5 12.1 91 0.8 E 19 24 10 13 - - 0.0
05/02:00am 12.7 9.5 11.1 90 0.9 ESE 19 24 10 13 - - 0.0
05/01:30am 12.2 8.4 9.9 86 1.2 SE 20 28 11 15 - - 0.0
05/01:00am 12.1 8.2 9.3 83 1.4 SSE 20 26 11 14 - - 0.0
05/12:30am 11.8 8.0 9.0 83 1.4 SSE 19 22 10 12 - - 0.0
05/12:00am 11.9 7.9 8.9 82 1.5 SSE 20 26 11 14 - - 0.0
 
Date/Time
EDT
Temp
°C
App
Temp
°C
Dew
Point
Rel
Hum
%
Delta-T
°C
Wind Press
QNH
hPa
Press
MSL
hPa
Rain
since 9 am
mm
Dir
 
Spd
km/h
Gust
km/h
Spd
kts
Gust
kts
04/11:30pm 11.6 8.2 9.0 84 1.3 SSE 17 20 9 11 - - 0.0
04/11:00pm 12.0 8.6 9.0 82 1.5 SSE 17 20 9 11 - - 0.0
04/10:30pm 12.2 8.4 9.0 81 1.6 S 19 22 10 12 - - 0.0
04/10:00pm 12.7 8.9 9.0 78 1.9 S 19 24 10 13 - - 0.0
04/09:30pm 13.4 9.5 9.3 76 2.1 S 20 24 11 13 - - 0.0

Other Formats:

Comma delimited format used in spreadsheet applications
http://www.bom.gov.au/fwo/IDT60801/IDT60801.95956.axf

JavaScript Object Notation format (JSON) in row-major order
http://www.bom.gov.au/fwo/IDT60801/IDT60801.95956.json